FW4346 Weather Reports


time (UTC)temp
C
wind
direction
speed
KPH
gust
KPH
rain 1hr
cm
rain 24hr
cm
rain mn
cm
humidity
%
barometer
mb
20200531080019 12 281 29.0 54.7 0.00 0.05 0.00 58 1009.0
20200531074527 12 267 25.7 49.9 0.00 0.05 0.00 59 1008.8
20200531073030 12 263 30.6 51.5 0.00 0.05 0.00 59 1008.5
20200531071514 12 265 33.8 59.5 0.00 0.05 0.00 57 1008.7
20200531070009 12 279 24.1 51.5 0.00 0.05 0.00 58 1009.2
20200531064510 12 249 29.0 49.9 0.00 0.05 0.05 58 1009.1
20200531063002 12 233 24.1 51.5 0.00 0.05 0.05 58 1008.7
20200531061626 12 241 37.0 57.9 0.00 0.05 0.05 58 1008.3
20200531060134 12 272 25.7 53.1 0.00 0.05 0.05 57 1008.2
20200531054908 12 259 32.2 51.5 0.00 0.05 0.05 57 1008.5
20200531053129 13 260 19.3 49.9 0.00 0.05 0.05 57 1008.3
20200531051616 13 288 27.4 46.7 0.00 0.05 0.05 57 1008.1
20200531050122 13 289 35.4 56.3 0.00 0.05 0.05 57 1007.5
20200531044624 12 267 20.9 38.6 0.00 0.05 0.05 57 1007.4
20200531043343 13 245 25.7 48.3 0.00 0.05 0.05 55 1007.6
20200531043035 13 263 30.6 48.3 0.00 0.05 0.05 55 1007.6
20200531041610 13 247 19.3 45.1 0.00 0.05 0.05 55 1007.3
20200531040116 13 277 24.1 56.3 0.00 0.05 0.05 54 1007.2
20200531034802 13 244 25.7 56.3 0.00 0.05 0.05 54 1007.1
20200531033043 13 277 22.5 53.1 0.00 0.05 0.05 53 1006.3
20200531031600 14 270 38.6 59.5 0.00 0.05 0.05 53 1006.0
20200531030027 14 263 37.0 61.2 0.00 0.05 0.05 53 1004.3
20200531023036 14 284 35.4 59.5 0.00 0.05 0.05 56 1006.3
20200531021526 15 292 45.1 69.2 0.00 0.05 0.05 53 1006.3
20200531020035 15 303 45.1 64.4 0.00 0.05 0.05 56 1004.7
20200531014535 16 284 35.4 67.6 0.00 0.05 0.05 56 1004.3
20200531013020 16 281 43.5 66.0 0.00 0.05 0.05 55 1004.3
20200531011541 16 245 37.0 54.7 0.00 0.05 0.05 56 1004.3
20200531010113 16 279 38.6 66.0 0.00 0.05 0.05 60 1004.2
20200530224505 21 279 17.7 37.0 0.00 0.00 0.00 50 996.8
20200530223018 22 279 27.4 46.7 0.00 0.00 0.00 44 997.6
20200530221752 23 271 29.0 45.1 0.00 0.00 0.00 41 998.1
20200530220239 25 270 20.9 46.7 0.00 0.00 0.00 39 997.7
20200530214809 27 276 22.5 37.0 0.00 0.00 0.00 36 997.2
20200530213201 30 279 17.7 30.6 0.00 0.00 0.00 32 996.3
20200530211656 30 319 1.6 14.5 0.00 0.00 0.00 32 996.6
20200530210332 31 290 6.4 16.1 0.00 0.00 0.00 31 996.9
20200530204709 30 304 9.7 14.5 0.00 0.00 0.00 33 997.1
20200530203155 30 312 12.9 17.7 0.00 0.00 0.00 33 997.3
20200530201618 29 19 9.7 16.1 0.00 0.00 0.00 34 997.9
20200530200100 30 22 8.0 16.1 0.00 0.00 0.00 34 998.1
20200530194556 29 22 8.0 14.5 0.00 0.00 0.00 34 998.1
20200530193124 29 326 8.0 17.7 0.00 0.00 0.00 35 998.4
20200530191607 28 327 9.7 20.9 0.00 0.00 0.00 36 998.6
20200530190055 28 232 9.7 20.9 0.00 0.00 0.00 36 999.2
20200530184522 27 295 16.1 24.1 0.00 0.00 0.00 37 999.4
20200530183026 26 281 16.1 27.4 0.00 0.00 0.00 38 999.5
20200530181517 26 258 16.1 27.4 0.00 0.00 0.00 38 999.5
20200530180036 26 281 16.1 29.0 0.00 0.00 0.00 39 999.5
20200530174510 25 259 16.1 27.4 0.00 0.00 0.00 41 999.5
20200530173008 25 261 17.7 30.6 0.00 0.00 0.00 42 999.8
20200530171531 25 300 19.3 30.6 0.00 0.00 0.00 42 999.4
20200530164740 25 286 19.3 27.4 0.00 0.00 0.00 42 1000.7
20200530163215 25 269 9.7 24.1 0.00 0.00 0.00 43 1000.8
20200530161639 23 248 16.1 33.8 0.00 0.00 0.00 45 1000.7
20200530160104 22 279 16.1 30.6 0.00 0.00 0.00 49 1000.7
20200530154701 22 306 17.7 30.6 0.00 0.00 0.00 49 1000.9
20200530153151 22 290 17.7 29.0 0.00 0.00 0.00 49 1002.0
20200530151620 22 281 9.7 19.3 0.00 0.00 0.00 50 1002.2
20200530150108 21 305 6.4 22.5 0.00 0.00 0.00 51 1001.8
20200530144615 21 355 6.4 12.9 0.00 0.00 0.00 52 1001.5
20200530143117 21 206 12.9 25.7 0.00 0.00 0.00 50 1001.5
20200530141550 22 221 4.8 12.9 0.00 0.00 0.00 50 1001.3
20200530140131 21 76 0.0 6.4 0.00 0.00 0.00 51 1001.9
20200530134549 22 109 4.8 14.5 0.00 0.00 0.00 48 1003.0
20200530133103 21 204 8.0 11.3 0.00 0.00 0.00 50 1003.0
20200530131559 22 276 11.3 19.3 0.00 0.00 0.00 49 1002.3
20200530130052 21 288 12.9 24.1 0.00 0.00 0.00 50 1002.3
20200530124532 20 36 1.6 6.4 0.00 0.00 0.00 56 1002.5
20200530123042 20 135 1.6 8.0 0.00 0.00 0.00 55 1002.8
20200530121606 20 140 1.6 4.8 0.00 0.00 0.00 54 1003.3
20200530120056 21 142 0.0 3.2 0.00 0.00 0.00 52 1003.4
20200530114626 20 142 3.2 8.0 0.00 0.00 0.00 53 1004.0
20200530113028 21 142 6.4 11.3 0.00 0.00 0.00 52 1003.3
20200530111545 21 142 3.2 6.4 0.00 0.00 0.00 51 1003.3
20200530110038 21 138 3.2 6.4 0.00 0.00 0.00 51 1003.2
20200530104542 20 139 0.0 12.9 0.00 0.00 0.00 53 1003.2
20200530103017 20 132 8.0 14.5 0.00 0.00 0.00 51 1002.9
20200530101525 20 159 6.4 12.9 0.00 0.00 0.00 52 1003.2
20200530100017 21 142 6.4 11.3 0.00 0.00 0.00 51 1003.5
20200530094518 21 152 1.6 8.0 0.00 0.00 0.00 50 1003.4
20200530093011 21 152 4.8 11.3 0.00 0.00 0.00 51 1003.7
20200530090012 21 152 1.6 8.0 0.00 0.00 0.00 51 1003.9
20200530084617 22 152 0.0 0.0 0.00 0.00 0.00 48 1004.1
20200530083157 22 152 0.0 0.0 0.00 0.00 0.00 48 1004.0
20200530081648 22 152 0.0 0.0 0.00 0.00 0.00 47 1004.7